ICE989 BIKF-EKVG
Flight info
| Callsign | ICE989 |
|---|---|
| Flight time | N/A |
| Altitude | 38999 |
| Route | M079F390 OSKUM3A OSKUM DCT MAGNI DCT |
| Aircraft | B38M/M-SDE1FGHILORVWXY/HB1 |
Departure
| Time | 2026-05-05 21:12 |
|---|---|
| Airport | Keflavik International Airport (BIKF) |
Arrival
| Time | N/A |
|---|---|
| Airport | Vágar Airport (EKVG) |
| Time | Latitude | Longitude | Altitude | Speed | Heading |
|---|---|---|---|---|---|
| 2026-05-05 20:46 | 63.99280 | -22.62190 | 143 ft | 0 kts | 316° |
| 2026-05-05 20:57 | 63.99278 | -22.62187 | 152 ft | 1 kts | 316° |
| 2026-05-05 20:58 | 63.99266 | -22.62160 | 166 ft | 3 kts | 315° |
| 2026-05-05 20:58 | 63.99253 | -22.62126 | 162 ft | 3 kts | 306° |
| 2026-05-05 20:58 | 63.99242 | -22.62088 | 145 ft | 3 kts | 299° |
| 2026-05-05 20:58 | 63.99233 | -22.62047 | 143 ft | 3 kts | 297° |
| 2026-05-05 20:59 | 63.99223 | -22.62008 | 143 ft | 3 kts | 310° |
| 2026-05-05 20:59 | 63.99211 | -22.61987 | 146 ft | 2 kts | 353° |
| 2026-05-05 20:59 | 63.99208 | -22.61986 | 146 ft | 1 kts | 360° |
| 2026-05-05 21:01 | 63.99209 | -22.61986 | 146 ft | 0 kts | 1° |
| 2026-05-05 21:01 | 63.99210 | -22.61986 | 146 ft | 0 kts | 3° |
| 2026-05-05 21:02 | 63.99211 | -22.61985 | 146 ft | 0 kts | 4° |
| 2026-05-05 21:02 | 63.99241 | -22.62045 | 145 ft | 0 kts | 88° |
| 2026-05-05 21:02 | 63.99284 | -22.61987 | 145 ft | 0 kts | 179° |
| 2026-05-05 21:03 | 63.99274 | -22.61986 | 145 ft | 5 kts | 180° |
| 2026-05-05 21:03 | 63.99223 | -22.61986 | 146 ft | 9 kts | 180° |
| 2026-05-05 21:03 | 63.99176 | -22.61947 | 144 ft | 6 kts | 114° |
| 2026-05-05 21:03 | 63.99173 | -22.61869 | 146 ft | 4 kts | 89° |
| 2026-05-05 21:04 | 63.99173 | -22.61805 | 147 ft | 5 kts | 88° |
| 2026-05-05 21:04 | 63.99173 | -22.61720 | 149 ft | 6 kts | 91° |
| 2026-05-05 21:04 | 63.99173 | -22.61584 | 152 ft | 11 kts | 89° |
| 2026-05-05 21:04 | 63.99173 | -22.61384 | 157 ft | 15 kts | 89° |
| 2026-05-05 21:05 | 63.99174 | -22.61167 | 162 ft | 12 kts | 90° |
| 2026-05-05 21:05 | 63.99173 | -22.61024 | 165 ft | 6 kts | 99° |
| 2026-05-05 21:05 | 63.99161 | -22.60965 | 167 ft | 4 kts | 128° |
| 2026-05-05 21:05 | 63.99131 | -22.60934 | 168 ft | 6 kts | 173° |
| 2026-05-05 21:06 | 63.99077 | -22.60936 | 171 ft | 9 kts | 181° |
| 2026-05-05 21:06 | 63.99002 | -22.60938 | 173 ft | 12 kts | 180° |
| 2026-05-05 21:06 | 63.98914 | -22.60938 | 173 ft | 14 kts | 180° |
| 2026-05-05 21:06 | 63.98794 | -22.60938 | 169 ft | 20 kts | 179° |
| 2026-05-05 21:07 | 63.98645 | -22.60935 | 170 ft | 22 kts | 181° |
| 2026-05-05 21:07 | 63.98498 | -22.60940 | 172 ft | 20 kts | 180° |
| 2026-05-05 21:07 | 63.98359 | -22.60941 | 168 ft | 20 kts | 179° |
| 2026-05-05 21:07 | 63.98222 | -22.60940 | 167 ft | 20 kts | 180° |
| 2026-05-05 21:08 | 63.98087 | -22.60941 | 170 ft | 19 kts | 180° |
| 2026-05-05 21:08 | 63.97949 | -22.60941 | 171 ft | 21 kts | 180° |
| 2026-05-05 21:08 | 63.97800 | -22.60941 | 172 ft | 22 kts | 180° |
| 2026-05-05 21:08 | 63.97647 | -22.60941 | 171 ft | 23 kts | 181° |
| 2026-05-05 21:09 | 63.97483 | -22.60941 | 168 ft | 25 kts | 180° |
| 2026-05-05 21:09 | 63.97299 | -22.60942 | 164 ft | 29 kts | 179° |
| 2026-05-05 21:09 | 63.97083 | -22.60941 | 156 ft | 33 kts | 180° |
| 2026-05-05 21:09 | 63.96889 | -22.60941 | 149 ft | 24 kts | 180° |
| 2026-05-05 21:10 | 63.96706 | -22.60941 | 142 ft | 26 kts | 180° |
| 2026-05-05 21:10 | 63.96557 | -22.60942 | 138 ft | 18 kts | 180° |
| 2026-05-05 21:10 | 63.96482 | -22.60924 | 138 ft | 10 kts | 155° |
| 2026-05-05 21:10 | 63.96460 | -22.60820 | 140 ft | 7 kts | 90° |
| 2026-05-05 21:11 | 63.96460 | -22.60737 | 142 ft | 4 kts | 90° |
| 2026-05-05 21:11 | 63.96460 | -22.60686 | 144 ft | 6 kts | 90° |
| 2026-05-05 21:11 | 63.96472 | -22.60557 | 147 ft | 11 kts | 33° |
| 2026-05-05 21:11 | 63.96677 | -22.60542 | 155 ft | 61 kts | 0° |
| 2026-05-05 21:12 | 63.97338 | -22.60538 | 173 ft | 127 kts | 359° |
| 2026-05-05 21:12 | 63.98369 | -22.60543 | 505 ft | 161 kts | 2° |
| 2026-05-05 21:12 | 63.99496 | -22.60528 | 1500 ft | 160 kts | 4° |
| 2026-05-05 21:12 | 64.00613 | -22.60536 | 2405 ft | 168 kts | 4° |
| 2026-05-05 21:13 | 64.01852 | -22.60540 | 2939 ft | 191 kts | 3° |
| 2026-05-05 21:13 | 64.03269 | -22.60545 | 3463 ft | 217 kts | 3° |
| 2026-05-05 21:13 | 64.04739 | -22.59927 | 4359 ft | 221 kts | 29° |
| 2026-05-05 21:13 | 64.05899 | -22.57517 | 5162 ft | 237 kts | 60° |
| 2026-05-05 21:14 | 64.06347 | -22.53786 | 6030 ft | 251 kts | 88° |
| 2026-05-05 21:14 | 64.06314 | -22.49786 | 7169 ft | 253 kts | 88° |
| 2026-05-05 21:14 | 64.06309 | -22.45707 | 8059 ft | 264 kts | 87° |
| 2026-05-05 21:14 | 64.06107 | -22.41454 | 8844 ft | 276 kts | 107° |
| 2026-05-05 21:15 | 64.05255 | -22.37559 | 9785 ft | 283 kts | 116° |
| 2026-05-05 21:15 | 64.04286 | -22.33541 | 10504 ft | 294 kts | 117° |
| 2026-05-05 21:15 | 64.03264 | -22.29363 | 11016 ft | 312 kts | 118° |
| 2026-05-05 21:15 | 64.02163 | -22.24912 | 11468 ft | 330 kts | 119° |
| 2026-05-05 21:16 | 64.01008 | -22.20275 | 12067 ft | 342 kts | 120° |
| 2026-05-05 21:16 | 63.99823 | -22.15534 | 12898 ft | 346 kts | 120° |
| 2026-05-05 21:16 | 63.98616 | -22.10720 | 13625 ft | 355 kts | 121° |
| 2026-05-05 21:16 | 63.97379 | -22.05793 | 14398 ft | 360 kts | 121° |
| 2026-05-05 21:17 | 63.96123 | -22.00803 | 15113 ft | 366 kts | 121° |
| 2026-05-05 21:17 | 63.94846 | -21.95740 | 15823 ft | 371 kts | 122° |
| 2026-05-05 21:17 | 63.93566 | -21.90677 | 16541 ft | 377 kts | 122° |
| 2026-05-05 21:17 | 63.92243 | -21.85458 | 17198 ft | 385 kts | 123° |
| 2026-05-05 21:18 | 63.90896 | -21.80154 | 17879 ft | 391 kts | 123° |
| 2026-05-05 21:18 | 63.89528 | -21.74781 | 18516 ft | 397 kts | 123° |
| 2026-05-05 21:18 | 63.88133 | -21.69319 | 19084 ft | 403 kts | 123° |
| 2026-05-05 21:18 | 63.86720 | -21.63796 | 19664 ft | 407 kts | 123° |
| 2026-05-05 21:19 | 63.85287 | -21.58213 | 20237 ft | 412 kts | 123° |
| 2026-05-05 21:19 | 63.83836 | -21.52571 | 20799 ft | 417 kts | 123° |
| 2026-05-05 21:19 | 63.82367 | -21.46873 | 21391 ft | 421 kts | 123° |
| 2026-05-05 21:19 | 63.80906 | -21.41222 | 22048 ft | 422 kts | 123° |
| 2026-05-05 21:20 | 63.79413 | -21.35464 | 22571 ft | 427 kts | 123° |
| 2026-05-05 21:20 | 63.77900 | -21.29643 | 23122 ft | 431 kts | 123° |
| 2026-05-05 21:20 | 63.76582 | -21.23522 | 23655 ft | 437 kts | 108° |
| 2026-05-05 21:20 | 63.75971 | -21.16756 | 24116 ft | 441 kts | 98° |
| 2026-05-05 21:21 | 63.75498 | -21.09883 | 24516 ft | 445 kts | 97° |
| 2026-05-05 21:21 | 63.75038 | -21.02953 | 24828 ft | 451 kts | 97° |
| 2026-05-05 21:21 | 63.74581 | -20.95890 | 25161 ft | 457 kts | 97° |
| 2026-05-05 21:21 | 63.74132 | -20.88861 | 25595 ft | 460 kts | 97° |
| 2026-05-05 21:22 | 63.73673 | -20.81690 | 26018 ft | 463 kts | 96° |
| 2026-05-05 21:22 | 63.73209 | -20.74475 | 26435 ft | 466 kts | 96° |
| 2026-05-05 21:22 | 63.72737 | -20.67214 | 26852 ft | 469 kts | 96° |
| 2026-05-05 21:22 | 63.72260 | -20.59909 | 27256 ft | 472 kts | 96° |
| 2026-05-05 21:23 | 63.71775 | -20.52559 | 27718 ft | 475 kts | 96° |
| 2026-05-05 21:23 | 63.71285 | -20.45308 | 28275 ft | 473 kts | 97° |
| 2026-05-05 21:23 | 63.70724 | -20.37965 | 28645 ft | 477 kts | 98° |
| 2026-05-05 21:23 | 63.70155 | -20.30570 | 29017 ft | 480 kts | 97° |
| 2026-05-05 21:24 | 63.69585 | -20.23151 | 29393 ft | 483 kts | 97° |
| 2026-05-05 21:24 | 63.69008 | -20.15674 | 29755 ft | 486 kts | 97° |
| 2026-05-05 21:24 | 63.68422 | -20.08138 | 30111 ft | 488 kts | 97° |
| 2026-05-05 21:24 | 63.67833 | -20.00595 | 30429 ft | 491 kts | 97° |
| 2026-05-05 21:25 | 63.67232 | -19.92986 | 30729 ft | 493 kts | 97° |
| 2026-05-05 21:25 | 63.66630 | -19.85388 | 31055 ft | 495 kts | 98° |
| 2026-05-05 21:25 | 63.66019 | -19.77751 | 31381 ft | 496 kts | 98° |
| 2026-05-05 21:25 | 63.65411 | -19.70193 | 31705 ft | 498 kts | 98° |
| 2026-05-05 21:26 | 63.64789 | -19.62515 | 32067 ft | 499 kts | 98° |
| 2026-05-05 21:26 | 63.64163 | -19.54846 | 32433 ft | 498 kts | 98° |
| 2026-05-05 21:26 | 63.63531 | -19.47154 | 32643 ft | 502 kts | 98° |
| 2026-05-05 21:26 | 63.62891 | -19.39418 | 32930 ft | 504 kts | 98° |
| 2026-05-05 21:27 | 63.62244 | -19.31661 | 33205 ft | 506 kts | 98° |
| 2026-05-05 21:27 | 63.61592 | -19.23878 | 33485 ft | 507 kts | 98° |
| 2026-05-05 21:27 | 63.60932 | -19.16079 | 33771 ft | 509 kts | 98° |
| 2026-05-05 21:27 | 63.60268 | -19.08270 | 34114 ft | 508 kts | 98° |
| 2026-05-05 21:28 | 63.59611 | -19.00603 | 34467 ft | 507 kts | 98° |
| 2026-05-05 21:28 | 63.58942 | -18.92835 | 34761 ft | 506 kts | 99° |
| 2026-05-05 21:28 | 63.58268 | -18.85079 | 35048 ft | 506 kts | 99° |
| 2026-05-05 21:28 | 63.57592 | -18.77335 | 35347 ft | 505 kts | 99° |
| 2026-05-05 21:29 | 63.56912 | -18.69605 | 35651 ft | 504 kts | 99° |
| 2026-05-05 21:29 | 63.56229 | -18.61891 | 35936 ft | 504 kts | 99° |
| 2026-05-05 21:29 | 63.55542 | -18.54185 | 36209 ft | 503 kts | 99° |
| 2026-05-05 21:29 | 63.54852 | -18.46488 | 36496 ft | 503 kts | 99° |
| 2026-05-05 21:30 | 63.54166 | -18.38899 | 36735 ft | 503 kts | 99° |
| 2026-05-05 21:30 | 63.53469 | -18.31214 | 37004 ft | 503 kts | 99° |
| 2026-05-05 21:30 | 63.52766 | -18.23537 | 37268 ft | 503 kts | 99° |
| 2026-05-05 21:30 | 63.52061 | -18.15869 | 37529 ft | 502 kts | 99° |
| 2026-05-05 21:31 | 63.51351 | -18.08208 | 37757 ft | 502 kts | 99° |
| 2026-05-05 21:31 | 63.50639 | -18.00555 | 38009 ft | 502 kts | 99° |
| 2026-05-05 21:31 | 63.49922 | -17.92909 | 38246 ft | 502 kts | 99° |
| 2026-05-05 21:31 | 63.49202 | -17.85273 | 38526 ft | 501 kts | 99° |
| 2026-05-05 21:32 | 63.48479 | -17.77662 | 38798 ft | 499 kts | 99° |
| 2026-05-05 21:32 | 63.47758 | -17.70089 | 38983 ft | 499 kts | 99° |
| 2026-05-05 21:32 | 63.47039 | -17.62617 | 39139 ft | 499 kts | 100° |
| 2026-05-05 21:32 | 63.46306 | -17.55035 | 39227 ft | 499 kts | 100° |
| 2026-05-05 21:33 | 63.45620 | -17.47988 | 39226 ft | 499 kts | 100° |
| 2026-05-05 21:33 | 63.44702 | -17.38597 | 39214 ft | 498 kts | 100° |
| 2026-05-05 21:34 | 63.43223 | -17.23615 | 39222 ft | 498 kts | 100° |
| 2026-05-05 21:34 | 63.41717 | -17.08544 | 39222 ft | 498 kts | 100° |
| 2026-05-05 21:35 | 63.40194 | -16.93479 | 39229 ft | 497 kts | 101° |
| 2026-05-05 21:35 | 63.38662 | -16.78486 | 39229 ft | 496 kts | 101° |
| 2026-05-05 21:36 | 63.37120 | -16.63568 | 39220 ft | 497 kts | 101° |
| 2026-05-05 21:36 | 63.35551 | -16.48556 | 39225 ft | 498 kts | 101° |
| 2026-05-05 21:37 | 63.34015 | -16.33505 | 38998 ft | 498 kts | 99° |
| 2026-05-05 21:37 | 63.33367 | -16.25954 | 38266 ft | 497 kts | 98° |
| 2026-05-05 21:37 | 63.32700 | -16.18371 | 37529 ft | 496 kts | 104° |
| 2026-05-05 21:38 | 63.31722 | -16.11165 | 38122 ft | 482 kts | 103° |
| 2026-05-05 21:38 | 63.30869 | -16.04095 | 38359 ft | 481 kts | 102° |
| 2026-05-05 21:38 | 63.30044 | -15.96889 | 38541 ft | 481 kts | 102° |
| 2026-05-05 21:38 | 63.29236 | -15.89679 | 38743 ft | 480 kts | 102° |
| 2026-05-05 21:39 | 63.28436 | -15.82471 | 38919 ft | 480 kts | 101° |
| 2026-05-05 21:39 | 63.27638 | -15.75273 | 39074 ft | 479 kts | 102° |
| 2026-05-05 21:39 | 63.26840 | -15.68096 | 39201 ft | 478 kts | 102° |
| 2026-05-05 21:39 | 63.26039 | -15.60921 | 39236 ft | 480 kts | 102° |
| 2026-05-05 21:40 | 63.24416 | -15.46493 | 39227 ft | 484 kts | 102° |
| 2026-05-05 21:40 | 63.22771 | -15.32026 | 39245 ft | 489 kts | 102° |
| 2026-05-05 21:41 | 63.21159 | -15.17984 | 39221 ft | 494 kts | 102° |
| 2026-05-05 21:41 | 63.19442 | -15.03182 | 39223 ft | 497 kts | 102° |
| 2026-05-05 21:42 | 63.17705 | -14.88353 | 39216 ft | 497 kts | 102° |
| 2026-05-05 21:42 | 63.15965 | -14.73642 | 39214 ft | 497 kts | 103° |
| 2026-05-05 21:43 | 63.14197 | -14.58849 | 39216 ft | 497 kts | 103° |
| 2026-05-05 21:43 | 63.13455 | -14.52688 | 39216 ft | 497 kts | 103° |
| 2026-05-06 01:34 | 63.12893 | -14.48029 | 39246 ft | 497 kts | 103° |
| 2026-05-06 01:34 | 63.12011 | -14.40738 | 39363 ft | 491 kts | 103° |
| 2026-05-06 01:34 | 63.11120 | -14.33434 | 39248 ft | 494 kts | 103° |
| 2026-05-06 01:35 | 63.09331 | -14.18868 | 39236 ft | 496 kts | 103° |
| 2026-05-06 01:35 | 63.07508 | -14.04154 | 39221 ft | 497 kts | 103° |
| 2026-05-06 01:36 | 63.05672 | -13.89472 | 39193 ft | 497 kts | 104° |
| 2026-05-06 01:36 | 63.03820 | -13.74808 | 39220 ft | 497 kts | 104° |
| 2026-05-06 01:37 | 63.01965 | -13.60259 | 39242 ft | 496 kts | 104° |
| 2026-05-06 01:37 | 63.00085 | -13.45646 | 39214 ft | 496 kts | 104° |
| 2026-05-06 01:38 | 62.98193 | -13.31079 | 39215 ft | 496 kts | 105° |
| 2026-05-06 01:38 | 62.96282 | -13.16501 | 39213 ft | 496 kts | 105° |
| 2026-05-06 01:39 | 62.94371 | -13.02055 | 39212 ft | 496 kts | 105° |
| 2026-05-06 01:39 | 62.92431 | -12.87517 | 39208 ft | 496 kts | 105° |
| 2026-05-06 01:40 | 62.90476 | -12.72999 | 39217 ft | 496 kts | 105° |
| 2026-05-06 01:40 | 62.88506 | -12.58507 | 39206 ft | 496 kts | 105° |
| 2026-05-06 01:41 | 62.86494 | -12.43831 | 39197 ft | 497 kts | 105° |
| 2026-05-06 01:41 | 62.84497 | -12.29393 | 39201 ft | 499 kts | 106° |
| 2026-05-06 01:42 | 62.82475 | -12.14904 | 39203 ft | 498 kts | 106° |
| 2026-05-06 01:42 | 62.80436 | -12.00418 | 39203 ft | 498 kts | 106° |
| 2026-05-06 01:43 | 62.78383 | -11.85959 | 39199 ft | 498 kts | 106° |
| 2026-05-06 01:43 | 62.76322 | -11.71565 | 39203 ft | 498 kts | 106° |
| 2026-05-06 01:44 | 62.74256 | -11.57257 | 39194 ft | 498 kts | 107° |
| 2026-05-06 01:44 | 62.72161 | -11.42875 | 39195 ft | 498 kts | 107° |
| 2026-05-06 01:45 | 62.70053 | -11.28538 | 39194 ft | 497 kts | 107° |
| 2026-05-06 01:45 | 62.67943 | -11.14296 | 39185 ft | 498 kts | 107° |
| 2026-05-06 01:46 | 62.65803 | -10.99959 | 39189 ft | 499 kts | 108° |
| 2026-05-06 01:46 | 62.63643 | -10.85615 | 39185 ft | 499 kts | 108° |
| 2026-05-06 01:47 | 62.62559 | -10.78468 | 38975 ft | 495 kts | 108° |
| 2026-05-06 01:47 | 62.61481 | -10.71374 | 38356 ft | 493 kts | 108° |
| 2026-05-06 01:47 | 62.60407 | -10.64349 | 37947 ft | 486 kts | 108° |
| 2026-05-06 01:47 | 62.59350 | -10.57449 | 37631 ft | 477 kts | 108° |
| 2026-05-06 01:48 | 62.58298 | -10.50619 | 37361 ft | 480 kts | 108° |
| 2026-05-06 01:48 | 62.57240 | -10.43769 | 36872 ft | 489 kts | 108° |
| 2026-05-06 01:48 | 62.56155 | -10.36781 | 36227 ft | 488 kts | 108° |
| 2026-05-06 01:48 | 62.55070 | -10.29813 | 35677 ft | 487 kts | 108° |
| 2026-05-06 01:49 | 62.53989 | -10.22902 | 35148 ft | 485 kts | 108° |
| 2026-05-06 01:49 | 62.52907 | -10.16004 | 34630 ft | 483 kts | 108° |
| 2026-05-06 01:49 | 62.51824 | -10.09139 | 34088 ft | 481 kts | 108° |
| 2026-05-06 01:49 | 62.50742 | -10.02297 | 33453 ft | 480 kts | 109° |
| 2026-05-06 01:50 | 62.49669 | -9.95538 | 32885 ft | 472 kts | 109° |
| 2026-05-06 01:50 | 62.48621 | -9.88963 | 32413 ft | 464 kts | 109° |
| 2026-05-06 01:50 | 62.47578 | -9.82440 | 31882 ft | 456 kts | 109° |
| 2026-05-06 01:50 | 62.46540 | -9.75972 | 31424 ft | 454 kts | 109° |
| 2026-05-06 01:51 | 62.45505 | -9.69551 | 30949 ft | 452 kts | 109° |
| 2026-05-06 01:51 | 62.44469 | -9.63139 | 30457 ft | 452 kts | 109° |
| 2026-05-06 01:51 | 62.43430 | -9.56737 | 29911 ft | 452 kts | 109° |
| 2026-05-06 01:51 | 62.42391 | -9.50354 | 29407 ft | 450 kts | 109° |
| 2026-05-06 01:52 | 62.41355 | -9.44016 | 28915 ft | 447 kts | 109° |
| 2026-05-06 01:52 | 62.40322 | -9.37714 | 28448 ft | 444 kts | 109° |
| 2026-05-06 01:52 | 62.39306 | -9.31538 | 27997 ft | 441 kts | 109° |
| 2026-05-06 01:52 | 62.38284 | -9.25346 | 27555 ft | 438 kts | 109° |
| 2026-05-06 01:53 | 62.37263 | -9.19185 | 27097 ft | 435 kts | 109° |
| 2026-05-06 01:53 | 62.36246 | -9.13063 | 26652 ft | 433 kts | 109° |
| 2026-05-06 01:53 | 62.35233 | -9.06985 | 26210 ft | 431 kts | 109° |
| 2026-05-06 01:53 | 62.34221 | -9.00929 | 25794 ft | 428 kts | 109° |
| 2026-05-06 01:54 | 62.33214 | -8.94921 | 25372 ft | 426 kts | 109° |
| 2026-05-06 01:54 | 62.32209 | -8.88936 | 24954 ft | 424 kts | 109° |
| 2026-05-06 01:54 | 62.31544 | -8.84986 | 24685 ft | 423 kts | 109° |
| 2026-05-06 01:54 | 62.30542 | -8.79050 | 24271 ft | 421 kts | 109° |
| 2026-05-06 01:55 | 62.29546 | -8.73165 | 23867 ft | 419 kts | 110° |
| 2026-05-06 01:55 | 62.28244 | -8.65501 | 23234 ft | 405 kts | 110° |
| 2026-05-06 01:55 | 62.27282 | -8.59860 | 22859 ft | 400 kts | 110° |
| 2026-05-06 01:55 | 62.26324 | -8.54251 | 22279 ft | 402 kts | 110° |
| 2026-05-06 01:56 | 62.25685 | -8.50526 | 21814 ft | 400 kts | 110° |
| 2026-05-06 01:56 | 62.24729 | -8.44958 | 21197 ft | 395 kts | 110° |
| 2026-05-06 01:56 | 62.23789 | -8.39496 | 20689 ft | 387 kts | 110° |
| 2026-05-06 01:56 | 62.22862 | -8.34130 | 20187 ft | 380 kts | 110° |
| 2026-05-06 01:57 | 62.21950 | -8.28863 | 19695 ft | 373 kts | 110° |
| 2026-05-06 01:57 | 62.21054 | -8.23704 | 19208 ft | 368 kts | 110° |
| 2026-05-06 01:57 | 62.19884 | -8.16988 | 18577 ft | 359 kts | 110° |
| 2026-05-06 01:57 | 62.19296 | -8.13616 | 18204 ft | 355 kts | 110° |
| 2026-05-06 01:58 | 62.18436 | -8.08702 | 17678 ft | 350 kts | 110° |
| 2026-05-06 01:58 | 62.17588 | -8.03869 | 17158 ft | 344 kts | 110° |
| 2026-05-06 01:58 | 62.16765 | -7.99189 | 16644 ft | 339 kts | 110° |
| 2026-05-06 01:58 | 62.15939 | -7.94505 | 16132 ft | 333 kts | 110° |
| 2026-05-06 01:59 | 62.15125 | -7.89900 | 15636 ft | 329 kts | 111° |
| 2026-05-06 01:59 | 62.14322 | -7.85364 | 15140 ft | 324 kts | 111° |
| 2026-05-06 01:59 | 62.13380 | -7.81055 | 14630 ft | 317 kts | 128° |
| 2026-05-06 01:59 | 62.11782 | -7.77963 | 14157 ft | 307 kts | 151° |
| 2026-05-06 02:00 | 62.09438 | -7.74747 | 13514 ft | 301 kts | 149° |
| 2026-05-06 02:00 | 62.08283 | -7.73136 | 13170 ft | 298 kts | 149° |
| 2026-05-06 02:00 | 62.06557 | -7.70745 | 12662 ft | 295 kts | 150° |
| 2026-05-06 02:00 | 62.04838 | -7.68373 | 12166 ft | 294 kts | 150° |
| 2026-05-06 02:01 | 62.03121 | -7.66010 | 11683 ft | 295 kts | 150° |
| 2026-05-06 02:01 | 62.01382 | -7.63623 | 11195 ft | 300 kts | 150° |
| 2026-05-06 02:01 | 61.99614 | -7.61200 | 10723 ft | 305 kts | 149° |
| 2026-05-06 02:01 | 61.97835 | -7.58765 | 10223 ft | 302 kts | 149° |
| 2026-05-06 02:02 | 61.96102 | -7.56396 | 9737 ft | 298 kts | 149° |
| 2026-05-06 02:02 | 61.94368 | -7.54028 | 9228 ft | 294 kts | 149° |
| 2026-05-06 02:02 | 61.92667 | -7.51710 | 8873 ft | 289 kts | 149° |
| 2026-05-06 02:02 | 61.90985 | -7.49420 | 8609 ft | 285 kts | 149° |
| 2026-05-06 02:03 | 61.89337 | -7.47181 | 8441 ft | 279 kts | 149° |
| 2026-05-06 02:03 | 61.87724 | -7.44991 | 8281 ft | 272 kts | 149° |
| 2026-05-06 02:03 | 61.86147 | -7.42853 | 8132 ft | 265 kts | 149° |
| 2026-05-06 02:03 | 61.84612 | -7.40774 | 7966 ft | 258 kts | 149° |
| 2026-05-06 02:04 | 61.83116 | -7.38751 | 7821 ft | 253 kts | 149° |
| 2026-05-06 02:04 | 61.81643 | -7.36761 | 7670 ft | 251 kts | 149° |
| 2026-05-06 02:04 | 61.80179 | -7.34784 | 7526 ft | 249 kts | 149° |
| 2026-05-06 02:04 | 61.78741 | -7.32846 | 7384 ft | 248 kts | 149° |
| 2026-05-06 02:05 | 61.77289 | -7.30891 | 7246 ft | 247 kts | 148° |
| 2026-05-06 02:05 | 61.75839 | -7.28941 | 7103 ft | 247 kts | 148° |
| 2026-05-06 02:05 | 61.74391 | -7.26996 | 6962 ft | 246 kts | 148° |
| 2026-05-06 02:05 | 61.72948 | -7.25060 | 6825 ft | 246 kts | 148° |
| 2026-05-06 02:06 | 61.71510 | -7.23132 | 6687 ft | 244 kts | 148° |
| 2026-05-06 02:06 | 61.70081 | -7.21203 | 6545 ft | 244 kts | 145° |
| 2026-05-06 02:06 | 61.69006 | -7.18541 | 6348 ft | 240 kts | 108° |
| 2026-05-06 02:06 | 61.68890 | -7.15200 | 6174 ft | 231 kts | 73° |
| 2026-05-06 02:07 | 61.69492 | -7.12135 | 6104 ft | 225 kts | 50° |
| 2026-05-06 02:07 | 61.70444 | -7.09543 | 6023 ft | 224 kts | 47° |
| 2026-05-06 02:07 | 61.71390 | -7.06937 | 5890 ft | 224 kts | 48° |
| 2026-05-06 02:07 | 61.72327 | -7.04327 | 5734 ft | 223 kts | 48° |
| 2026-05-06 02:08 | 61.73246 | -7.01759 | 5606 ft | 214 kts | 48° |
| 2026-05-06 02:08 | 61.74118 | -6.99319 | 5431 ft | 203 kts | 48° |
| 2026-05-06 02:08 | 61.74948 | -6.96991 | 5249 ft | 194 kts | 47° |
| 2026-05-06 02:08 | 61.75739 | -6.94763 | 5074 ft | 191 kts | 47° |
| 2026-05-06 02:09 | 61.76529 | -6.92522 | 4904 ft | 190 kts | 47° |
| 2026-05-06 02:09 | 61.77315 | -6.90283 | 4742 ft | 190 kts | 47° |
| 2026-05-06 02:09 | 61.78099 | -6.88044 | 4571 ft | 189 kts | 47° |
| 2026-05-06 02:09 | 61.78880 | -6.85802 | 4411 ft | 189 kts | 47° |
| 2026-05-06 02:10 | 61.79657 | -6.83570 | 4230 ft | 188 kts | 47° |
| 2026-05-06 02:10 | 61.80430 | -6.81347 | 4087 ft | 187 kts | 47° |
| 2026-05-06 02:10 | 61.81202 | -6.79126 | 4020 ft | 188 kts | 47° |
| 2026-05-06 02:10 | 61.81975 | -6.76898 | 4024 ft | 188 kts | 48° |
| 2026-05-06 02:11 | 61.82737 | -6.74698 | 4050 ft | 188 kts | 48° |
| 2026-05-06 02:11 | 61.83510 | -6.72469 | 4040 ft | 188 kts | 47° |
| 2026-05-06 02:11 | 61.84284 | -6.70231 | 4035 ft | 188 kts | 46° |
| 2026-05-06 02:11 | 61.85065 | -6.68007 | 4045 ft | 188 kts | 46° |
| 2026-05-06 02:12 | 61.85841 | -6.65776 | 4053 ft | 188 kts | 48° |
| 2026-05-06 02:12 | 61.86625 | -6.63559 | 4046 ft | 186 kts | 40° |
| 2026-05-06 02:12 | 61.87691 | -6.62274 | 4017 ft | 174 kts | 6° |
| 2026-05-06 02:12 | 61.88860 | -6.62434 | 4027 ft | 168 kts | 337° |
| 2026-05-06 02:13 | 61.89821 | -6.63774 | 4043 ft | 166 kts | 312° |
| 2026-05-06 02:13 | 61.90481 | -6.65756 | 4057 ft | 168 kts | 303° |
| 2026-05-06 02:13 | 61.91093 | -6.67863 | 4053 ft | 168 kts | 302° |
| 2026-05-06 02:13 | 61.91689 | -6.69996 | 4046 ft | 168 kts | 302° |
| 2026-05-06 02:14 | 61.92273 | -6.72149 | 4047 ft | 168 kts | 301° |
| 2026-05-06 02:14 | 61.92850 | -6.74313 | 4046 ft | 168 kts | 301° |
| 2026-05-06 02:14 | 61.93422 | -6.76484 | 4043 ft | 168 kts | 301° |
| 2026-05-06 02:14 | 61.93981 | -6.78628 | 4045 ft | 168 kts | 301° |
| 2026-05-06 02:15 | 61.94545 | -6.80803 | 4044 ft | 168 kts | 300° |
| 2026-05-06 02:15 | 61.94586 | -6.80963 | 4044 ft | 169 kts | 300° |
| 2026-05-06 02:15 | 61.94630 | -6.81133 | 4044 ft | 169 kts | 300° |
| 2026-05-06 02:16 | 61.94668 | -6.81278 | 4041 ft | 169 kts | 300° |
| 2026-05-06 02:16 | 61.94786 | -6.81738 | 3998 ft | 171 kts | 300° |